createdAt,value
2019-05-13T00:02:50.947Z,0.40
2019-05-13T00:06:57.826Z,0.43
2019-05-13T00:11:04.441Z,0.40
2019-05-13T00:15:09.173Z,0.43
2019-05-13T00:19:14.378Z,0.37
2019-05-13T00:23:19.355Z,0.60
2019-05-13T00:27:24.271Z,0.40
2019-05-13T00:31:29.238Z,0.50
2019-05-13T00:35:34.168Z,0.53
2019-05-13T00:39:39.050Z,0.67
2019-05-13T00:43:44.588Z,0.70
2019-05-13T00:47:49.641Z,0.67
2019-05-13T00:51:54.620Z,0.40
2019-05-13T00:55:59.631Z,0.60
2019-05-13T01:00:04.970Z,0.60
2019-05-13T01:04:09.886Z,0.60
2019-05-13T01:08:14.883Z,0.77
2019-05-13T01:12:19.799Z,0.70
2019-05-13T01:16:24.730Z,0.70
2019-05-13T01:20:29.615Z,0.60
2019-05-13T01:24:34.519Z,0.60
2019-05-13T01:28:39.455Z,0.80
2019-05-13T01:32:44.994Z,0.80
2019-05-13T01:36:49.967Z,0.70
2019-05-13T01:40:54.868Z,1.00
2019-05-13T01:44:59.853Z,1.07
2019-05-13T01:49:05.224Z,0.90
2019-05-13T01:53:10.138Z,0.90
2019-05-13T01:57:15.082Z,0.90
2019-05-13T02:01:20.080Z,0.90
2019-05-13T02:05:25.002Z,0.97
2019-05-13T02:09:30.183Z,0.70
2019-05-13T02:13:35.102Z,0.90
2019-05-13T02:17:40.030Z,0.87
2019-05-13T02:21:45.045Z,0.60
2019-05-13T02:25:49.937Z,1.20
2019-05-13T02:29:54.927Z,0.70
2019-05-13T02:34:02.512Z,0.63
2019-05-13T02:38:19.679Z,0.80
2019-05-13T02:42:13.590Z,0.90
2019-05-13T02:46:18.534Z,1.00
2019-05-13T02:50:23.425Z,0.83
2019-05-13T02:54:28.402Z,1.00
2019-05-13T02:58:33.894Z,0.57
2019-05-13T03:02:38.963Z,0.80
2019-05-13T03:06:43.909Z,0.80
2019-05-13T03:10:48.923Z,0.90
2019-05-13T03:14:53.803Z,0.83
2019-05-13T03:18:58.726Z,0.80
2019-05-13T03:23:03.777Z,0.73
2019-05-13T03:27:08.712Z,0.87
2019-05-13T03:31:16.996Z,0.90
2019-05-13T03:35:26.201Z,0.60
2019-05-13T03:39:28.390Z,0.70
2019-05-13T03:43:34.207Z,0.70
2019-05-13T03:47:42.032Z,0.50
2019-05-13T03:51:46.185Z,0.70
2019-05-13T03:55:54.131Z,0.90
2019-05-13T03:59:58.497Z,1.17
2019-05-13T04:04:03.518Z,0.73
2019-05-13T04:08:08.629Z,0.77
2019-05-13T04:12:14.023Z,0.90
2019-05-13T04:16:18.950Z,0.70
2019-05-13T04:20:24.005Z,1.07
2019-05-13T04:24:28.899Z,1.10
2019-05-13T04:28:33.896Z,1.03
2019-05-13T04:32:38.815Z,0.70
2019-05-13T04:36:43.735Z,0.90
2019-05-13T04:40:48.660Z,1.10
2019-05-13T04:44:53.701Z,0.90
2019-05-13T04:49:02.015Z,0.70
2019-05-13T04:53:05.314Z,0.70
2019-05-13T04:57:12.400Z,1.20
2019-05-13T05:02:12.947Z,0.87
2019-05-13T05:06:33.128Z,0.73
2019-05-13T05:11:13.285Z,0.80
2019-05-13T05:16:05.211Z,0.90
2019-05-13T05:20:18.053Z,1.00
2019-05-13T05:24:58.115Z,0.80
2019-05-13T05:29:32.102Z,1.37
2019-05-13T05:34:19.190Z,0.80
2019-05-13T05:38:51.362Z,0.67
2019-05-13T05:42:59.295Z,0.83
2019-05-13T05:47:07.232Z,1.20
2019-05-13T05:51:13.727Z,1.13
2019-05-13T05:55:18.753Z,1.00
2019-05-13T05:59:27.242Z,1.10
2019-05-13T06:03:36.171Z,1.37
2019-05-13T06:07:42.258Z,0.87
2019-05-13T06:11:47.406Z,1.33
2019-05-13T06:15:52.330Z,1.30
2019-05-13T06:19:57.359Z,0.83
2019-05-13T06:24:02.897Z,1.13
2019-05-13T06:28:08.035Z,0.80
2019-05-13T06:32:21.472Z,1.03
2019-05-13T06:36:21.952Z,1.30
2019-05-13T06:40:26.310Z,1.10
2019-05-13T06:44:31.741Z,1.30
2019-05-13T06:48:36.732Z,0.90
2019-05-13T06:52:42.479Z,1.27
2019-05-13T06:56:47.607Z,0.97
2019-05-13T07:00:57.351Z,1.00
2019-05-13T07:04:59.302Z,1.23
2019-05-13T07:09:06.294Z,1.03
2019-05-13T07:13:11.583Z,0.97
2019-05-13T07:17:16.530Z,0.90
2019-05-13T07:21:21.777Z,1.73
2019-05-13T07:25:26.759Z,1.20
2019-05-13T07:29:32.601Z,2.07
2019-05-13T07:33:37.783Z,1.52
2019-05-13T07:37:43.102Z,1.70
2019-05-13T07:41:48.063Z,1.07
2019-05-13T07:45:52.942Z,1.60
2019-05-13T07:49:57.861Z,1.50
2019-05-13T07:54:02.780Z,1.20
2019-05-13T07:58:07.680Z,1.23
2019-05-13T08:02:12.674Z,1.10
2019-05-13T08:06:17.628Z,1.30
2019-05-13T08:10:22.538Z,1.77
2019-05-13T08:14:27.425Z,1.00
2019-05-13T08:18:32.499Z,1.50
2019-05-13T08:22:37.395Z,2.60
2019-05-13T08:26:45.170Z,7.00
2019-05-13T08:30:51.657Z,3.83
2019-05-13T08:35:02.014Z,1.40
2019-05-13T08:39:02.718Z,1.47
2019-05-13T08:43:08.168Z,1.00
2019-05-13T08:47:13.072Z,2.33
2019-05-13T08:51:17.962Z,1.40
2019-05-13T08:55:22.991Z,1.50
2019-05-13T08:59:27.891Z,1.17
2019-05-13T09:03:32.924Z,1.07
2019-05-13T09:07:37.999Z,1.10
2019-05-13T09:11:43.844Z,1.20
2019-05-13T09:15:51.473Z,1.40
2019-05-13T09:19:55.420Z,1.30
2019-05-13T09:24:02.152Z,1.73
2019-05-13T09:28:06.990Z,1.33
2019-05-13T09:32:12.190Z,1.23
2019-05-13T09:36:17.366Z,1.20
2019-05-13T09:40:22.466Z,1.40
2019-05-13T09:44:27.360Z,1.20
2019-05-13T09:48:32.264Z,0.77
2019-05-13T09:52:39.677Z,1.40
2019-05-13T09:56:44.031Z,1.10
2019-05-13T10:00:49.059Z,1.30
2019-05-13T10:04:53.964Z,1.30
2019-05-13T10:08:58.970Z,1.77
2019-05-13T10:13:11.990Z,1.30
2019-05-13T10:17:12.774Z,1.30
2019-05-13T10:21:17.007Z,1.20
2019-05-13T10:25:22.414Z,1.60
2019-05-13T10:29:28.020Z,1.63
2019-05-13T10:33:33.016Z,1.50
2019-05-13T10:37:38.139Z,1.37
2019-05-13T10:41:43.062Z,1.50
2019-05-13T10:45:47.986Z,1.80
2019-05-13T10:49:52.865Z,1.30
2019-05-13T10:53:59.624Z,1.27
2019-05-13T10:58:04.638Z,1.20
2019-05-13T11:02:13.087Z,1.40
2019-05-13T11:06:16.163Z,3.93
2019-05-13T11:10:26.696Z,2.07
2019-05-13T11:14:32.347Z,2.20
2019-05-13T11:18:37.427Z,1.93
2019-05-13T11:22:42.490Z,1.40
2019-05-13T11:26:47.723Z,1.77
2019-05-13T11:30:52.647Z,1.53
2019-05-13T11:34:57.536Z,2.63
2019-05-13T11:39:02.989Z,1.37
2019-05-13T11:43:08.058Z,2.53
2019-05-13T11:47:13.033Z,1.60
2019-05-13T11:51:17.971Z,1.10
2019-05-13T11:55:23.155Z,1.60
2019-05-13T11:59:28.129Z,1.33
2019-05-13T12:03:33.147Z,1.60
2019-05-13T12:07:38.081Z,0.90
2019-05-13T12:11:43.302Z,1.40
2019-05-13T12:15:49.941Z,1.30
2019-05-13T12:19:54.762Z,1.30
2019-05-13T12:24:07.212Z,1.60
2019-05-13T12:28:06.374Z,1.23
2019-05-13T12:32:13.501Z,1.27
2019-05-13T12:36:18.998Z,1.10
2019-05-13T12:40:24.514Z,1.37
2019-05-13T12:44:31.152Z,1.40
2019-05-13T12:48:36.053Z,3.93
2019-05-13T12:52:43.746Z,1.23
2019-05-13T12:56:47.564Z,1.67
2019-05-13T13:00:53.375Z,1.53
2019-05-13T13:05:19.982Z,1.20
2019-05-13T13:09:06.342Z,1.20
2019-05-13T13:13:11.252Z,2.00
2019-05-13T13:17:16.577Z,1.50
2019-05-13T13:21:24.460Z,0.83
2019-05-13T13:25:28.099Z,1.40
2019-05-13T13:29:34.084Z,1.33
2019-05-13T13:33:39.143Z,1.30
2019-05-13T13:37:46.025Z,1.20
2019-05-13T13:41:53.363Z,1.57
2019-05-13T13:46:08.533Z,1.50
2019-05-13T13:50:03.805Z,1.63
2019-05-13T13:54:08.855Z,1.90
2019-05-13T13:58:14.367Z,1.30
2019-05-13T14:02:23.952Z,1.27
2019-05-13T14:07:22.785Z,1.40
2019-05-13T14:10:32.951Z,1.50
2019-05-13T14:14:37.901Z,1.30
2019-05-13T14:18:52.314Z,1.20
2019-05-13T14:22:58.260Z,1.80
2019-05-13T14:27:03.295Z,1.83
2019-05-13T14:31:08.221Z,1.70
2019-05-13T14:35:13.257Z,1.43
2019-05-13T14:39:18.240Z,1.53
2019-05-13T14:43:23.181Z,1.03
2019-05-13T14:47:28.223Z,1.77
2019-05-13T14:51:33.189Z,1.50
2019-05-13T14:55:38.126Z,1.90
2019-05-13T14:59:43.322Z,1.70
2019-05-13T15:03:48.273Z,1.67
2019-05-13T15:07:53.211Z,1.47
2019-05-13T15:11:58.164Z,1.40
2019-05-13T15:16:03.112Z,1.40
2019-05-13T15:20:08.987Z,1.80
2019-05-13T15:24:14.093Z,2.03
2019-05-13T15:28:22.066Z,1.80
2019-05-13T15:32:26.661Z,1.70
2019-05-13T15:36:31.692Z,1.73
2019-05-13T15:40:36.657Z,1.67
2019-05-13T15:44:41.571Z,1.90
2019-05-13T15:48:46.639Z,1.80
2019-05-13T15:52:51.586Z,2.10
2019-05-13T15:56:56.740Z,1.43
2019-05-13T16:01:02.961Z,1.73
2019-05-13T16:05:08.178Z,1.83
2019-05-13T16:09:13.328Z,1.40
2019-05-13T16:13:18.231Z,1.80
2019-05-13T16:17:37.539Z,1.63
2019-05-13T16:21:32.014Z,1.67
2019-05-13T16:25:36.773Z,2.90
2019-05-13T16:29:42.422Z,2.30
2019-05-13T16:33:47.386Z,1.63
2019-05-13T16:37:52.318Z,2.37
2019-05-13T16:41:57.289Z,2.50
2019-05-13T16:46:02.302Z,2.20
2019-05-13T16:50:08.510Z,2.30
2019-05-13T16:54:13.472Z,3.27
2019-05-13T16:58:18.403Z,2.00
2019-05-13T17:02:23.367Z,1.53
2019-05-13T17:06:28.370Z,1.40
2019-05-13T17:10:33.353Z,2.00
2019-05-13T17:14:38.298Z,2.10
2019-05-13T17:18:44.184Z,1.63
2019-05-13T17:22:51.224Z,2.00
2019-05-13T17:26:55.798Z,2.40
2019-05-13T17:31:02.170Z,1.70
2019-05-13T17:35:07.607Z,2.17
2019-05-13T17:39:12.833Z,2.23
2019-05-13T17:43:17.829Z,2.37
2019-05-13T17:47:22.825Z,3.90
2019-05-13T17:51:27.763Z,3.37
2019-05-13T17:55:32.788Z,3.80
2019-05-13T17:59:37.749Z,4.43
2019-05-13T18:03:42.791Z,4.70
2019-05-13T18:07:47.776Z,2.87
2019-05-13T18:11:52.900Z,2.53
2019-05-13T18:15:57.838Z,4.10
2019-05-13T18:20:02.767Z,4.00
2019-05-13T18:24:07.674Z,3.30
2019-05-13T18:28:27.191Z,2.47
2019-05-13T18:32:21.283Z,2.97
2019-05-13T18:36:25.788Z,2.60
2019-05-13T18:40:31.545Z,2.87
2019-05-13T18:44:36.595Z,2.03
2019-05-13T18:48:57.799Z,1.90
2019-05-13T18:52:48.092Z,2.03
2019-05-13T18:56:56.398Z,1.83
2019-05-13T19:01:01.564Z,1.60
2019-05-13T19:05:07.012Z,1.93
2019-05-13T19:09:11.951Z,2.10
2019-05-13T19:13:16.906Z,1.97
2019-05-13T19:17:22.399Z,1.87
2019-05-13T19:21:34.706Z,1.80
2019-05-13T19:25:42.064Z,1.20
2019-05-13T19:29:46.939Z,2.30
2019-05-13T19:33:52.160Z,1.60
2019-05-13T19:37:57.158Z,2.33
2019-05-13T19:42:02.779Z,1.73
2019-05-13T19:46:09.224Z,1.70
2019-05-13T19:50:14.424Z,1.23
2019-05-13T19:54:19.703Z,1.47
2019-05-13T19:58:24.966Z,2.20
2019-05-13T20:02:31.546Z,2.13
2019-05-13T20:06:36.654Z,1.87
2019-05-13T20:10:42.305Z,1.97
2019-05-13T20:14:47.398Z,1.90
2019-05-13T20:18:52.346Z,2.00
2019-05-13T20:22:57.398Z,2.43
2019-05-13T20:27:02.330Z,2.37
2019-05-13T20:31:07.299Z,3.40
2019-05-13T20:35:12.416Z,2.40
2019-05-13T20:39:17.307Z,2.27
2019-05-13T20:43:22.569Z,2.80
2019-05-13T20:47:27.571Z,6.17
2019-05-13T20:51:32.507Z,2.97
2019-05-13T20:55:37.518Z,3.40
2019-05-13T20:59:42.439Z,3.10
2019-05-13T21:03:47.812Z,2.77
2019-05-13T21:07:52.706Z,1.27
2019-05-13T21:11:57.642Z,2.03
2019-05-13T21:16:02.608Z,3.00
2019-05-13T21:20:18.842Z,1.93
2019-05-13T21:24:17.110Z,1.83
2019-05-13T21:28:22.196Z,1.83
2019-05-13T21:32:27.179Z,2.57
2019-05-13T21:36:32.198Z,3.00
2019-05-13T21:40:37.098Z,2.20
2019-05-13T21:44:42.142Z,2.27
2019-05-13T21:48:47.075Z,1.23
2019-05-13T21:52:51.967Z,2.30
2019-05-13T21:56:56.901Z,1.40
2019-05-13T22:01:02.255Z,2.10
2019-05-13T22:05:07.529Z,2.60
2019-05-13T22:09:12.555Z,1.60
2019-05-13T22:13:17.471Z,2.67
2019-05-13T22:17:22.399Z,2.13
2019-05-13T22:21:27.312Z,1.90
2019-05-13T22:25:32.257Z,2.10
2019-05-13T22:29:37.182Z,1.77
2019-05-13T22:33:45.077Z,1.73
2019-05-13T22:37:51.061Z,1.73
2019-05-13T22:41:55.406Z,1.53
2019-05-13T22:46:00.335Z,1.30
2019-05-13T22:50:06.327Z,1.77
2019-05-13T22:54:11.840Z,0.90
2019-05-13T22:58:17.002Z,1.30
2019-05-13T23:02:22.078Z,2.00
2019-05-13T23:06:27.045Z,1.40
2019-05-13T23:10:32.131Z,1.90
2019-05-13T23:14:37.042Z,1.50
2019-05-13T23:18:42.185Z,2.27
2019-05-13T23:22:47.209Z,2.03
2019-05-13T23:26:52.141Z,1.50
2019-05-13T23:30:57.184Z,1.67
2019-05-13T23:35:02.190Z,1.40
2019-05-13T23:39:08.103Z,2.30
2019-05-13T23:43:13.034Z,1.30
2019-05-13T23:47:17.958Z,1.60
2019-05-13T23:51:22.879Z,1.40
2019-05-13T23:55:27.796Z,1.70
2019-05-13T23:59:32.833Z,2.03
